Flight Track Log - Related Links

Times and Time Zones

All times are in EDT time to prevent confusion due to time zone crossing. See the FLG4099 flight status page for this flight to view local times or setup timezone preferences in your user account.

Time Position Orientation Groundspeed Altitude Reporting Facility
EDT Latitude Longitude Course Direction KTS MPH feet Rate Location/Type
06:14AM 44.3794 -73.2417 256° West 242 278 7,000  Level Boston Center
06:15AM 44.3661 -73.7040 259° West  Level FlightAware Approximate
06:15AM 44.3639 -73.3489 259° West 268 308 10,300  Level Boston Center
06:16AM 44.3461 -73.8443 259° West  Level FlightAware Approximate
06:16AM 44.3547 -73.4767 264° West 311 358 12,100  Level Boston Center
06:17AM 44.3241 -73.9839 256° West  Level FlightAware Approximate
06:17AM 44.3450 -73.6128 264° West 344 396 14,400  Level Boston Center
06:18AM 44.2986 -74.1224 256° West  Level FlightAware Approximate
06:18AM 44.3350 -73.7578 265° West 374 430 16,200  Level Boston Center
06:19AM 44.2729 -74.2607 256° West  Level FlightAware Approximate
06:19AM 44.3269 -73.9028 266° West 384 442 18,000  Level Boston Center
06:20AM 44.3167 -74.0619 265° West 396 456 17,800 364 Descending Boston Center
06:21AM 44.3033 -74.2561 265° West 418 481 18,800 1,150 Climbing Boston Center
06:22AM 44.2942 -74.4239 266° West 431 496 20,100 1,300 Climbing Boston Center
06:23AM 44.2828 -74.5919 265° West 436 502 21,400 1,300 Climbing Boston Center
06:24AM 44.2692 -74.7625 264° West 442 509 22,700 1,300 Climbing Boston Center
06:25AM 44.2594 -74.9303 265° West 442 509 24,000 1,100 Climbing Boston Center
06:26AM 44.2472 -75.0978 264° West 442 509 24,900 850 Climbing Boston Center
06:27AM 44.2350 -75.2683 264° West 442 509 25,700 800 Climbing Boston Center
06:28AM 44.2200 -75.4414 263° West 442 509 26,500 750 Climbing Boston Center
06:29AM 44.2089 -75.6203 265° West 453 521 27,200 650 Climbing Boston Center
06:30AM 44.1936 -75.7933 263° West 453 521 27,800 600 Climbing Boston Center
06:31AM 44.1800 -75.9722 264° West 458 527 28,400 600 Climbing Boston Center
06:32AM 44.1661 -76.1481 264° West 458 527 29,000 600 Climbing Boston Center
06:33AM 44.1394 -76.3228 258° West 458 527 29,600 561 Climbing Boston Center
06:34AM 44.0833 -76.4500 238° Southwest 460 529 30,000 224 Climbing Toronto Center
06:35AM 44.0500 -76.6167 255° West 460 529 30,000  Level Toronto Center
06:36AM 44.0333 -76.8000 263° West 460 529 30,000  Level Toronto Center
06:37AM 44.0000 -76.9667 255° West 450 518 30,000  Level Toronto Center
06:38AM 43.9667 -77.1000 251° West 450 518 30,000  Level Toronto Center
06:39AM 43.9333 -77.3000 257° West 450 518 30,000  Level Toronto Center
06:40AM 43.9167 -77.4500 261° West 450 518 30,000  Level Toronto Center
06:41AM 43.8833 -77.6167 255° West 440 506 30,000  Level Toronto Center
06:42AM 43.8500 -77.7833 255° West 440 506 30,000  Level Toronto Center
06:43AM 43.8167 -77.9500 255° West 440 506 30,000  Level Toronto Center
06:44AM 43.7833 -78.1167 255° West 440 506 30,000  Level Toronto Center
06:45AM 43.7500 -78.3000 256° West 440 506 30,000  Level Toronto Center
06:46AM 43.7167 -78.4333 251° West 440 506 30,000  Level Toronto Center
06:47AM 43.7000 -78.6167 263° West 440 506 30,000  Level Toronto Center
06:48AM 43.6500 -78.7500 243° Southwest 440 506 30,000  Level Toronto Center
06:49AM 43.5833 -78.9167 241° Southwest 440 506 30,000  Level Toronto Center
06:50AM 43.5167 -79.0500 235° Southwest 440 506 30,000  Level Toronto Center
06:51AM 43.4667 -79.2000 245° Southwest 440 506 30,000  Level Toronto Center
06:52AM 43.4000 -79.3500 239° Southwest 440 506 30,000  Level Toronto Center
06:53AM 43.3333 -79.5000 239° Southwest 440 506 30,000 -500 Level Toronto Center
06:54AM 43.2667 -79.6333 236° Southwest 440 506 29,000 -1,000 Descending Toronto Center
06:55AM 43.2000 -79.7667 236° Southwest 440 506 28,000 -1,000 Descending Toronto Center
06:56AM 43.1333 -79.9000 236° Southwest 440 506 27,000 -1,050 Descending Toronto Center
06:57AM 43.0667 -80.0667 241° Southwest 440 506 25,900 -1,100 Descending Toronto Center
06:58AM 43.0000 -80.2000 236° Southwest 440 506 24,800 -1,100 Descending Toronto Center
06:59AM 42.9500 -80.3333 243° Southwest 440 506 23,700 -900 Descending Toronto Center
07:00AM 42.8833 -80.4667 236° Southwest 440 506 23,000 -353 Descending Toronto Center
07:01AM 42.8228 -80.6369 244° Southwest 435 501 23,000  Level Cleveland Center
07:02AM 42.7603 -80.7756 238° Southwest 435 501 23,000  Level Cleveland Center
07:03AM 42.7036 -80.9222 242° Southwest 435 501 23,000  Level Cleveland Center
07:04AM 42.6864 -81.0661 261° West 435 501 23,000  Level Cleveland Center
07:05AM 42.6689 -81.2297 262° West 435 501 23,000  Level Cleveland Center
07:06AM 42.6492 -81.3906 261° West 442 509 23,000  Level Cleveland Center
07:07AM 42.6311 -81.5539 262° West 437 503 23,000 -350 Level Cleveland Center
07:08AM 42.6111 -81.7089 260° West 437 503 22,300 -1,250 Descending Cleveland Center
07:09AM 42.5883 -81.8861 260° West 432 497 20,500 -1,900 Descending Cleveland Center
07:10AM 42.5719 -82.0353 262° West 426 490 18,500 -1,900 Descending Cleveland Center
07:11AM 42.5533 -82.1814 260° West 413 475 16,700 -1,881 Descending Cleveland Center
07:12AM 42.5367 -82.3275 261° West 386 444 14,800 -1,960 Descending Cleveland Center
07:13AM 42.5225 -82.4256 259° West 385 443 13,400 -2,032 Descending Cleveland Center
07:13AM 42.5156 -82.4706 258° West 402 463 12,700 -1,254 Descending Cleveland Center
07:14AM 42.4950 -82.5825 256° West 377 434 12,000 -438 Descending Cleveland Center
07:15AM 42.4597 -82.6800 244° Southwest 367 422 12,000  Level Cleveland Center
07:15AM 42.4422 -82.7272 243° Southwest 378 435 12,000  Level Cleveland Center
07:16AM 42.4114 -82.8217 246° West 368 423 12,000  Level Cleveland Center
07:16AM 42.3961 -82.8522 236° Southwest 373 429 12,000  Level Cleveland Center
07:17AM 42.3650 -82.9467 246° West 368 423 12,000  Level Cleveland Center
07:17AM 42.3519 -82.9769 240° Southwest 373 429 12,000  Level Cleveland Center
07:18AM 42.3208 -83.0686 245° Southwest 359 413 12,000  Level Cleveland Center
07:18AM 42.3119 -83.0906 241° Southwest 368 423 12,000  Level Cleveland Center
07:19AM 42.2875 -83.1625 245° Southwest 258 297 12,000 -265 Level Cleveland Center
07:20AM 42.2256 -83.2275 218° Southwest 237 273 11,500 -1,254 Descending Cleveland Center
07:21AM 42.1578 -83.2722 206° Southwest 252 290 9,200 -2,172 Descending Cleveland Center
07:22AM 42.1131 -83.3122 214° Southwest 235 270 7,300 -2,291 Descending Cleveland Center
07:23AM 42.0558 -83.3519 207° Southwest 229 264 5,000 -1,488 Descending Cleveland Center
07:24AM 42.0394 -83.4183 252° West 197 227 4,300 -700 Descending Cleveland Center

Login

Don't have an account? Register now (free) for customized features, flight alerts, and more!